Etusivu
METAR-TAF:

METAR-TAF

Lentoasemat :

Dyersburg, Tennessee, Yhdysvallat

Leveyspiiri: 36-00N, Pituuspiiri: 089-24W, korkeus merenpinnasta: 103 m

Tämänhetkinen sää

Tämä raportti tehtiin 53 minuuttia sitten, kello 03.56 UTC
Tuuli 3 kn pohjoisen/luoteesta
Lämpötila 12°C
Kosteus 88%
Ilmanpaine 1018 hPa
Näkyvyys: 16.1 km
Muutamia pilviä 10000 ft:n korkeudessa

METAR: KDYR 050356Z AUTO 34003KT 10SM FEW100 12/10 A3007 RMK AO2 SLP186 T01220100 PNO $

Aika: 23:49 (04:49 UTC)


TAF: puuttuu

Säähavainnot ja -ennusteet yli 4000 lentoasemalta (METAR- ja TAF-raportit).

Käytössä olevat sääasemat on merkitty karttaan keltaisilla ja punaisilla pisteillä.

Aseta hiiri pisteen päälle nähdäksesi sääaseman nimen.

Klikkaa sitten nähdäksesi säähavainnot ja -ennusteet.

Kartan vaihtaminen: klikkaa mustalla rastilla varustettuja vihreitä pisteitä, niin voit zoomata sisään; viivalla varustettua vihreää pistettä, niin voit zoomata ulos tai vihreitä nuolia, niin pääset viereisille kartoille.


METAR-TAF: